Time;durP1;ratioP1;P1;durP2;ratioP2;P2;SDS_P1;SDS_P2;PMS_P1;PMS_P2;Temp;Humidity;BMP_temperature;BMP_pressure;BME280_temperature;BME280_humidity;BME280_pressure;Samples;Min_cycle;Max_cycle;Signal;HPM_P1;HPM_P2
2022/09/02 00:02:24;;;;;;;1.67;1.50;;;12.20;82.50;;;;;;5054470;28;20180;-88
2022/09/02 00:04:49;;;;;;;1.50;1.37;;;12.20;82.20;;;;;;5054076;28;20176;-88
2022/09/02 00:07:15;;;;;;;5.67;1.20;;;12.30;81.80;;;;;;5054116;28;20203;-88
2022/09/02 00:09:40;;;;;;;4.53;1.30;;;12.20;81.50;;;;;;5054012;28;20208;-88
2022/09/02 00:12:07;;;;;;;2.43;1.30;;;12.20;81.10;;;;;;5054086;28;20183;-87
2022/09/02 00:14:35;;;;;;;4.10;1.50;;;12.20;80.90;;;;;;5053637;28;20262;-88
2022/09/02 00:17:02;;;;;;;5.60;1.37;;;12.20;80.70;;;;;;5053546;28;20223;-88
2022/09/02 00:19:29;;;;;;;2.90;1.40;;;12.20;80.50;;;;;;5053258;28;20629;-88
2022/09/02 00:21:56;;;;;;;1.30;1.13;;;12.20;80.30;;;;;;5054888;28;20261;-87
2022/09/02 00:24:23;;;;;;;1.30;1.20;;;12.20;79.90;;;;;;5054665;28;20612;-88
2022/09/02 00:26:49;;;;;;;2.83;1.30;;;12.20;79.40;;;;;;5053347;28;20196;-87
2022/09/02 00:29:15;;;;;;;5.47;1.50;;;12.20;79.10;;;;;;5053209;28;20200;-89
2022/09/02 00:31:42;;;;;;;1.40;1.30;;;12.00;79.00;;;;;;5053229;28;20180;-88
2022/09/02 00:34:08;;;;;;;1.90;1.50;;;12.00;79.10;;;;;;5054571;28;20172;-88
2022/09/02 00:36:34;;;;;;;4.50;1.67;;;12.00;79.50;;;;;;5053259;28;20720;-88
2022/09/02 00:39:01;;;;;;;1.90;1.80;;;11.90;80.20;;;;;;5054610;28;20180;-88
2022/09/02 00:41:27;;;;;;;4.40;1.73;;;11.90;80.60;;;;;;5053400;28;20650;-88
2022/09/02 00:43:57;;;;;;;3.67;1.53;;;11.90;80.80;;;;;;5053251;28;20176;-88
2022/09/02 00:46:25;;;;;;;1.67;1.43;;;11.80;80.90;;;;;;5054322;28;20208;-89
2022/09/02 00:49:16;;;;;;;1.77;1.30;;;11.80;80.80;;;;;;5054370;28;20195;-87
2022/09/02 00:51:53;;;;;;;3.17;1.50;;;11.80;80.40;;;;;;5053342;28;20180;-89
2022/09/02 00:54:21;;;;;;;2.53;1.60;;;11.70;80.20;;;;;;5053177;28;20217;-88
2022/09/02 00:56:48;;;;;;;2.33;1.60;;;11.70;80.60;;;;;;5054124;28;20215;-87
2022/09/02 00:59:44;;;;;;;2.23;1.33;;;11.80;81.10;;;;;;5052956;28;20180;-88
2022/09/02 01:02:10;;;;;;;5.57;1.80;;;11.80;81.40;;;;;;5042262;28;20223;-89
2022/09/02 01:04:35;;;;;;;2.63;1.67;;;11.80;81.50;;;;;;5053940;28;20670;-88
2022/09/02 01:07:02;;;;;;;5.90;1.60;;;11.70;81.80;;;;;;5054178;28;20199;-88
2022/09/02 01:09:30;;;;;;;1.70;1.60;;;11.60;82.30;;;;;;5053756;28;20246;-89
2022/09/02 01:11:57;;;;;;;2.03;1.63;;;11.50;82.80;;;;;;5053981;28;20160;-88
2022/09/02 01:14:23;;;;;;;2.63;1.60;;;11.30;82.90;;;;;;5054038;28;20165;-87
2022/09/02 01:16:54;;;;;;;1.77;1.50;;;11.20;83.30;;;;;;5053892;28;20187;-88
2022/09/02 01:19:35;;;;;;;3.10;1.50;;;11.20;83.70;;;;;;5052762;28;20168;-88
2022/09/02 01:22:01;;;;;;;2.47;1.50;;;11.10;84.00;;;;;;5052991;28;20203;-88
2022/09/02 01:24:30;;;;;;;2.53;1.53;;;11.10;84.30;;;;;;5053831;28;20647;-88
2022/09/02 01:26:57;;;;;;;1.47;1.37;;;11.10;84.60;;;;;;5052714;28;20769;-88
2022/09/02 01:29:25;;;;;;;3.97;1.40;;;11.10;84.90;;;;;;5054154;28;20208;-87
2022/09/02 01:31:51;;;;;;;2.17;1.40;;;11.10;85.00;;;;;;5053295;28;20175;-88
2022/09/02 01:34:17;;;;;;;2.20;1.60;;;11.20;85.10;;;;;;5054184;28;20168;-89
2022/09/02 01:36:43;;;;;;;2.33;1.60;;;11.20;85.20;;;;;;5052339;28;20200;-88
2022/09/02 01:39:11;;;;;;;2.07;1.50;;;11.20;85.30;;;;;;5052459;28;20673;-88
2022/09/02 01:41:37;;;;;;;1.47;1.37;;;11.30;85.40;;;;;;5052644;28;20186;-88
2022/09/02 01:44:04;;;;;;;2.93;1.60;;;11.30;85.40;;;;;;5054006;28;20173;-88
2022/09/02 01:46:30;;;;;;;2.70;1.47;;;11.30;85.50;;;;;;5053559;28;20214;-87
2022/09/02 01:48:56;;;;;;;5.13;1.77;;;11.30;85.50;;;;;;5053465;28;20200;-88
2022/09/02 01:51:21;;;;;;;2.00;1.70;;;11.40;85.40;;;;;;5052233;28;20267;-89
2022/09/02 01:53:47;;;;;;;2.60;1.77;;;11.40;85.50;;;;;;5053506;28;20665;-88
2022/09/02 01:56:14;;;;;;;2.60;1.40;;;11.50;85.50;;;;;;5052124;28;20566;-88
2022/09/02 01:58:39;;;;;;;2.17;1.40;;;11.50;85.30;;;;;;5052173;28;20194;-88
2022/09/02 02:01:06;;;;;;;4.03;1.50;;;11.50;85.30;;;;;;5053321;28;20180;-88
2022/09/02 02:03:32;;;;;;;6.53;1.77;;;11.50;85.30;;;;;;5053598;28;20172;-88
2022/09/02 02:06:01;;;;;;;2.93;1.70;;;11.50;85.20;;;;;;5053490;28;20188;-89
2022/09/02 02:08:27;;;;;;;2.03;1.47;;;11.50;85.20;;;;;;5052078;28;20207;-88
2022/09/02 02:10:53;;;;;;;1.70;1.60;;;11.50;85.10;;;;;;5052165;28;20183;-88
2022/09/02 02:13:18;;;;;;;1.80;1.70;;;11.50;85.20;;;;;;5053597;28;20186;-88
2022/09/02 02:15:44;;;;;;;3.57;1.50;;;11.50;85.20;;;;;;5051853;28;20211;-88
2022/09/02 02:18:10;;;;;;;2.50;1.60;;;11.50;85.20;;;;;;5052059;28;20187;-88
2022/09/02 02:20:37;;;;;;;1.60;1.50;;;11.50;85.20;;;;;;5051868;28;20208;-88
2022/09/02 02:23:04;;;;;;;1.50;1.40;;;11.60;85.20;;;;;;5051980;28;20188;-89
2022/09/02 02:25:30;;;;;;;4.80;1.50;;;11.50;85.10;;;;;;5052197;28;20200;-88
2022/09/02 02:27:56;;;;;;;6.53;1.73;;;11.50;85.10;;;;;;5051820;28;20204;-88
2022/09/02 02:30:22;;;;;;;1.63;1.53;;;11.50;85.20;;;;;;5051839;28;20176;-88
2022/09/02 02:32:48;;;;;;;5.00;1.60;;;11.50;85.20;;;;;;5052021;28;20176;-88
2022/09/02 02:35:15;;;;;;;1.97;1.33;;;11.50;85.20;;;;;;5051850;28;20658;-88
2022/09/02 02:37:41;;;;;;;2.20;1.77;;;11.40;85.30;;;;;;5051791;28;20168;-87
2022/09/02 02:40:07;;;;;;;1.27;1.17;;;11.30;85.30;;;;;;5051658;28;20172;-88
2022/09/02 02:42:34;;;;;;;4.30;1.60;;;11.30;85.40;;;;;;5051892;28;20288;-88
2022/09/02 02:45:00;;;;;;;2.33;1.40;;;11.30;85.40;;;;;;5055562;28;20230;-88
2022/09/02 02:47:26;;;;;;;7.30;1.73;;;11.30;85.50;;;;;;5138756;23;20228;-87
2022/09/02 02:49:52;;;;;;;2.07;1.50;;;11.30;85.50;;;;;;5037066;28;20729;-89
2022/09/02 02:52:17;;;;;;;3.90;1.50;;;11.30;85.40;;;;;;5037044;28;20164;-90
2022/09/02 02:54:43;;;;;;;2.33;1.50;;;11.20;85.50;;;;;;5055117;28;20278;-90
2022/09/02 02:57:09;;;;;;;1.33;1.23;;;11.20;85.50;;;;;;5037838;28;20196;-89
2022/09/02 02:59:36;;;;;;;1.33;1.20;;;11.20;85.70;;;;;;5053684;28;20263;-90
2022/09/02 03:02:02;;;;;;;1.57;1.27;;;11.20;85.60;;;;;;5054615;28;20187;-90
2022/09/02 03:04:28;;;;;;;2.80;1.50;;;11.10;85.60;;;;;;5053396;28;20673;-90
2022/09/02 03:06:53;;;;;;;2.60;1.53;;;11.10;85.60;;;;;;5053481;28;20180;-89
2022/09/02 03:09:19;;;;;;;4.30;1.50;;;11.00;85.70;;;;;;5053392;28;20715;-90
2022/09/02 03:11:45;;;;;;;1.47;1.37;;;10.90;85.70;;;;;;5053449;28;20690;-89
2022/09/02 03:14:11;;;;;;;1.70;1.50;;;10.90;85.90;;;;;;5055049;28;20198;-89
2022/09/02 03:16:37;;;;;;;2.27;1.50;;;10.90;86.00;;;;;;5053333;28;20168;-89
2022/09/02 03:19:03;;;;;;;4.40;1.70;;;10.80;86.00;;;;;;5054347;28;20252;-89
2022/09/02 03:21:28;;;;;;;1.30;1.20;;;10.80;86.00;;;;;;5054376;28;20267;-90
2022/09/02 03:23:54;;;;;;;2.27;1.50;;;10.80;86.10;;;;;;5054717;28;20263;-89
2022/09/02 03:26:22;;;;;;;1.67;1.57;;;10.80;86.10;;;;;;5053524;28;20275;-89
2022/09/02 03:28:48;;;;;;;3.43;1.50;;;10.70;86.00;;;;;;5052941;28;20752;-89
2022/09/02 03:31:20;;;;;;;1.63;1.53;;;10.70;86.10;;;;;;5054573;28;20168;-89
2022/09/02 03:33:45;;;;;;;1.70;1.60;;;10.70;86.20;;;;;;5052937;28;20242;-89
2022/09/02 03:36:43;;;;;;;2.13;1.50;;;10.70;86.20;;;;;;5052935;28;20180;-89
2022/09/02 03:39:09;;;;;;;2.13;1.80;;;10.60;86.40;;;;;;5042208;28;20207;-89
2022/09/02 03:41:35;;;;;;;3.57;1.50;;;10.60;86.50;;;;;;5053703;28;20176;-90
2022/09/02 03:44:01;;;;;;;4.83;1.97;;;10.50;86.50;;;;;;5052926;28;20225;-89
2022/09/02 03:46:27;;;;;;;4.63;1.67;;;10.50;86.60;;;;;;5052901;28;20259;-88
2022/09/02 03:48:52;;;;;;;3.33;1.60;;;10.50;86.70;;;;;;5017463;28;1036281;-90
2022/09/02 03:51:20;;;;;;;1.60;1.50;;;10.60;86.70;;;;;;5053829;28;20180;-90
2022/09/02 03:53:46;;;;;;;4.60;1.97;;;10.60;86.70;;;;;;5053798;28;20581;-90
2022/09/02 03:56:14;;;;;;;2.13;1.70;;;10.60;86.70;;;;;;5052787;28;20180;-90
2022/09/02 03:58:41;;;;;;;3.43;1.43;;;10.60;86.70;;;;;;5053584;28;20407;-89
2022/09/02 04:01:07;;;;;;;1.63;1.43;;;10.60;86.80;;;;;;5054106;28;20180;-89
2022/09/02 04:03:33;;;;;;;6.40;1.60;;;10.60;86.70;;;;;;5053520;28;20210;-90
2022/09/02 04:05:59;;;;;;;3.73;1.77;;;10.60;86.60;;;;;;5053526;28;20180;-90
2022/09/02 04:08:25;;;;;;;1.50;1.30;;;10.60;86.70;;;;;;5053325;28;20204;-90
2022/09/02 04:10:50;;;;;;;3.60;1.70;;;10.60;86.50;;;;;;5053724;28;20187;-90
2022/09/02 04:13:16;;;;;;;2.57;1.60;;;10.50;86.40;;;;;;5053617;28;20184;-90
2022/09/02 04:15:46;;;;;;;1.73;1.63;;;10.40;86.50;;;;;;5053329;28;20184;-89
2022/09/02 04:18:13;;;;;;;7.07;2.10;;;10.40;86.50;;;;;;5053137;28;20200;-90
2022/09/02 04:20:40;;;;;;;2.63;1.77;;;10.30;86.50;;;;;;5053240;28;20714;-90
2022/09/02 04:23:06;;;;;;;1.80;1.57;;;10.30;86.70;;;;;;5053258;28;20183;-90
2022/09/02 04:25:33;;;;;;;4.43;1.80;;;10.20;86.90;;;;;;5053055;28;20226;-89
2022/09/02 04:27:59;;;;;;;2.37;1.60;;;10.30;87.10;;;;;;5052953;28;20265;-90
2022/09/02 04:30:24;;;;;;;3.23;1.70;;;10.30;87.30;;;;;;5053316;28;20185;-90
2022/09/02 04:32:51;;;;;;;3.83;1.80;;;10.30;87.20;;;;;;5053280;28;20179;-89
2022/09/02 04:35:17;;;;;;;2.13;1.80;;;10.30;87.30;;;;;;5054251;28;20551;-90
2022/09/02 04:37:43;;;;;;;8.80;1.80;;;10.30;87.20;;;;;;5052720;28;20199;-89
2022/09/02 04:40:09;;;;;;;1.90;1.53;;;10.40;87.20;;;;;;5052909;28;20168;-90
2022/09/02 04:42:35;;;;;;;3.37;1.60;;;10.50;87.30;;;;;;5053970;28;20172;-89
2022/09/02 04:45:01;;;;;;;1.73;1.63;;;10.60;87.20;;;;;;5052610;28;20176;-90
2022/09/02 04:47:26;;;;;;;1.83;1.60;;;10.70;87.00;;;;;;5053822;28;20216;-90
2022/09/02 04:49:53;;;;;;;5.30;1.80;;;11.00;87.00;;;;;;5053864;28;20195;-90
2022/09/02 04:52:19;;;;;;;1.97;1.70;;;11.10;86.50;;;;;;5052828;28;20536;-90
2022/09/02 04:54:46;;;;;;;1.93;1.70;;;11.20;85.90;;;;;;5052564;28;20176;-90
2022/09/02 04:57:11;;;;;;;2.13;1.57;;;11.20;85.30;;;;;;5052456;28;20200;-89
2022/09/02 04:59:37;;;;;;;5.43;2.10;;;11.20;85.10;;;;;;5052679;28;20180;-89
2022/09/02 05:02:03;;;;;;;2.33;2.00;;;11.20;85.10;;;;;;5052465;28;20182;-90
2022/09/02 05:04:30;;;;;;;4.63;2.33;;;11.20;85.10;;;;;;5053255;28;20184;-90
2022/09/02 05:07:00;;;;;;;1.60;1.50;;;11.20;85.30;;;;;;5053383;28;20199;-89
2022/09/02 05:09:25;;;;;;;6.37;1.80;;;11.20;85.50;;;;;;5053557;28;20246;-89
2022/09/02 05:11:56;;;;;;;2.20;1.73;;;11.10;85.50;;;;;;5053167;28;20606;-89
2022/09/02 05:14:22;;;;;;;1.90;1.80;;;11.20;85.80;;;;;;5052367;28;20172;-90
2022/09/02 05:16:52;;;;;;;4.90;2.07;;;11.20;86.10;;;;;;5052641;28;20180;-90
2022/09/02 05:19:18;;;;;;;3.00;1.70;;;11.20;86.20;;;;;;5052291;28;20217;-90
2022/09/02 05:21:45;;;;;;;2.20;2.00;;;11.30;86.40;;;;;;5052139;28;20187;-90
2022/09/02 05:24:11;;;;;;;5.23;2.00;;;11.30;86.40;;;;;;5052221;28;20179;-90
2022/09/02 05:26:37;;;;;;;4.37;2.20;;;11.50;86.50;;;;;;5052218;28;20638;-90
2022/09/02 05:29:07;;;;;;;5.33;1.93;;;11.50;86.50;;;;;;5051847;28;20200;-90
2022/09/02 05:31:33;;;;;;;2.80;1.73;;;11.60;86.50;;;;;;5052008;28;20231;-89
2022/09/02 05:33:59;;;;;;;3.50;1.90;;;11.60;86.50;;;;;;5052101;28;20186;-89
2022/09/02 05:36:24;;;;;;;3.97;2.03;;;11.70;86.40;;;;;;5052092;28;20183;-89
2022/09/02 05:38:50;;;;;;;5.47;1.70;;;11.70;86.30;;;;;;5051944;28;20203;-89
2022/09/02 05:41:24;;;;;;;1.90;1.80;;;11.80;86.20;;;;;;5051930;28;20184;-89
2022/09/02 05:43:55;;;;;;;2.27;1.87;;;11.90;86.20;;;;;;5052055;28;20180;-89
2022/09/02 05:46:24;;;;;;;1.87;1.60;;;12.00;86.00;;;;;;5052770;28;20207;-88
2022/09/02 05:49:06;;;;;;;2.13;1.93;;;12.10;85.90;;;;;;5052966;28;20302;-90
2022/09/02 05:51:51;;;;;;;2.30;1.90;;;12.10;85.90;;;;;;5051879;28;20202;-89
2022/09/02 05:54:30;;;;;;;2.00;1.90;;;12.20;85.70;;;;;;5051840;28;20171;-90
2022/09/02 05:56:58;;;;;;;2.10;1.90;;;12.30;85.50;;;;;;5051817;28;20228;-88
2022/09/02 05:59:26;;;;;;;2.10;1.80;;;12.30;85.40;;;;;;5053105;28;20722;-91
2022/09/02 06:01:52;;;;;;;3.20;2.10;;;12.40;85.40;;;;;;5051694;28;20183;-91
2022/09/02 06:04:18;;;;;;;3.43;2.07;;;12.50;85.10;;;;;;5052882;28;20176;-91
2022/09/02 06:06:44;;;;;;;4.30;2.07;;;12.60;84.90;;;;;;5052879;28;20639;-91
2022/09/02 06:09:13;;;;;;;2.10;1.90;;;12.70;84.80;;;;;;5051563;28;20219;-90
2022/09/02 06:11:44;;;;;;;4.13;2.10;;;12.70;84.40;;;;;;5053192;28;20176;-90
2022/09/02 06:14:12;;;;;;;9.03;2.67;;;12.80;84.20;;;;;;5052355;28;20200;-91
2022/09/02 06:16:38;;;;;;;4.47;2.23;;;12.80;84.10;;;;;;5051664;28;20213;-90
2022/09/02 06:19:04;;;;;;;6.20;2.50;;;12.80;83.90;;;;;;5054414;28;20208;-93
2022/09/02 06:21:31;;;;;;;9.23;2.70;;;12.90;83.80;;;;;;5057608;28;20638;-92
2022/09/02 06:23:57;;;;;;;3.83;2.50;;;13.00;83.50;;;;;;5056944;28;20180;-91
2022/09/02 06:26:22;;;;;;;2.90;2.60;;;13.00;83.40;;;;;;5056725;28;20180;-89
2022/09/02 06:28:48;;;;;;;4.17;2.97;;;13.10;83.30;;;;;;5055134;28;20208;-91
2022/09/02 06:31:18;;;;;;;8.73;3.10;;;13.20;83.10;;;;;;5055248;28;20665;-91
2022/09/02 06:33:45;;;;;;;5.33;3.40;;;13.20;83.10;;;;;;5055529;28;20529;-90
2022/09/02 06:36:14;;;;;;;3.87;2.67;;;13.30;83.00;;;;;;5056447;28;20194;-89
2022/09/02 06:38:42;;;;;;;3.90;2.43;;;13.30;82.30;;;;;;5056196;28;20281;-89
2022/09/02 06:41:11;;;;;;;4.20;2.73;;;13.40;82.40;;;;;;5055057;28;20183;-89
2022/09/02 06:43:36;;;;;;;4.07;2.80;;;13.50;82.40;;;;;;5055049;28;20184;-89
2022/09/02 06:46:02;;;;;;;4.90;2.60;;;13.60;82.30;;;;;;5055047;28;20233;-89
2022/09/02 06:48:28;;;;;;;2.63;2.43;;;13.70;82.00;;;;;;5056069;28;20208;-90
2022/09/02 06:50:54;;;;;;;4.33;2.30;;;13.80;81.70;;;;;;5056446;28;20646;-90
2022/09/02 06:53:20;;;;;;;4.47;2.33;;;13.80;81.40;;;;;;5056259;28;20184;-90
2022/09/02 06:55:46;;;;;;;2.37;1.97;;;13.80;80.90;;;;;;5056184;28;20543;-89
2022/09/02 06:58:13;;;;;;;10.70;7.70;;;13.90;80.90;;;;;;5054922;28;20200;-89
2022/09/02 07:00:40;;;;;;;3.63;2.27;;;14.00;80.50;;;;;;5054910;28;20176;-88
2022/09/02 07:06:21;;;;;;;1.90;1.70;;;14.20;80.00;;;;;;5056342;28;20290;-89
2022/09/02 07:08:47;;;;;;;4.27;2.00;;;14.30;79.70;;;;;;5042350;28;20728;-89
2022/09/02 07:11:22;;;;;;;3.03;1.60;;;14.50;79.50;;;;;;5054562;28;20180;-89
2022/09/02 07:13:49;;;;;;;7.10;5.43;;;14.60;79.20;;;;;;5055351;28;20168;-88
2022/09/02 07:16:15;;;;;;;2.73;1.83;;;14.70;79.00;;;;;;5055358;28;20206;-89
2022/09/02 07:18:42;;;;;;;2.47;1.80;;;14.70;78.30;;;;;;5055348;28;20201;-89
2022/09/02 07:21:10;;;;;;;3.63;1.50;;;14.80;77.90;;;;;;5055728;28;20171;-88
2022/09/02 07:23:35;;;;;;;2.27;1.77;;;15.00;78.00;;;;;;5054300;28;20179;-89
2022/09/02 07:26:01;;;;;;;6.80;2.37;;;15.10;77.80;;;;;;5054857;28;20253;-88
2022/09/02 07:28:26;;;;;;;2.43;1.60;;;15.20;77.30;;;;;;5054604;28;20211;-87
2022/09/02 07:30:54;;;;;;;2.83;2.30;;;15.30;77.10;;;;;;5054912;28;20243;-89
2022/09/02 07:33:20;;;;;;;3.80;2.55;;;15.30;76.80;;;;;;5055980;28;20579;-90
2022/09/02 07:35:46;;;;;;;3.17;1.67;;;15.50;76.60;;;;;;5054676;28;20230;-88
2022/09/02 07:38:13;;;;;;;2.00;1.40;;;15.50;76.20;;;;;;5054341;28;20602;-88
2022/09/02 07:40:40;;;;;;;5.13;1.50;;;15.70;75.60;;;;;;5054013;28;20650;-84
2022/09/02 07:43:08;;;;;;;2.57;1.70;;;15.80;75.30;;;;;;5054279;28;20650;-84
2022/09/02 07:45:35;;;;;;;5.22;1.60;;;15.90;74.00;;;;;;5055639;28;20175;-86
2022/09/02 07:48:01;;;;;;;3.10;1.50;;;16.00;73.70;;;;;;5053959;28;20248;-87
2022/09/02 07:50:27;;;;;;;2.78;1.65;;;16.10;72.50;;;;;;5055149;28;20176;-86
2022/09/02 07:52:55;;;;;;;4.57;1.77;;;16.20;73.60;;;;;;5053951;28;20550;-86
2022/09/02 07:55:22;;;;;;;4.03;1.45;;;16.30;73.10;;;;;;5055620;28;20168;-86
2022/09/02 07:57:48;;;;;;;3.88;1.40;;;16.40;72.50;;;;;;5054073;28;20279;-88
2022/09/02 08:00:17;;;;;;;5.15;1.90;;;16.50;72.40;;;;;;5053721;28;20172;-87
2022/09/02 08:02:43;;;;;;;6.63;1.83;;;16.60;71.80;;;;;;5053639;28;20176;-87
2022/09/02 08:05:09;;;;;;;2.80;1.48;;;16.70;71.30;;;;;;5053580;28;20179;-87
2022/09/02 08:07:35;;;;;;;2.95;1.40;;;16.90;71.50;;;;;;5053524;28;20195;-87
2022/09/02 08:10:00;;;;;;;1.20;1.13;;;17.10;70.70;;;;;;5053658;28;20204;-86
2022/09/02 08:12:27;;;;;;;2.33;1.17;;;17.10;68.60;;;;;;5053411;28;20543;-87
2022/09/02 08:14:54;;;;;;;1.40;0.90;;;17.20;68.40;;;;;;5053717;28;20222;-86
2022/09/02 08:17:20;;;;;;;1.88;1.25;;;17.30;67.40;;;;;;5053482;28;20196;-86
2022/09/02 08:19:45;;;;;;;3.85;1.25;;;17.40;67.30;;;;;;5053382;28;20180;-87
2022/09/02 08:22:11;;;;;;;3.95;3.38;;;17.50;66.90;;;;;;5053091;28;20187;-87
2022/09/02 08:24:36;;;;;;;1.67;1.05;;;17.60;65.80;;;;;;5054401;28;20185;-85
2022/09/02 08:27:02;;;;;;;2.35;1.30;;;17.70;65.50;;;;;;5054275;28;20172;-87
2022/09/02 08:29:28;;;;;;;3.50;1.10;;;17.80;65.40;;;;;;5052945;28;20199;-87
2022/09/02 08:31:53;;;;;;;3.03;1.17;;;17.90;64.60;;;;;;5053073;28;20184;-87
2022/09/02 08:34:19;;;;;;;4.30;1.30;;;18.00;63.30;;;;;;5053143;28;20180;-86
2022/09/02 08:36:44;;;;;;;1.58;1.17;;;18.10;63.90;;;;;;5053087;28;20176;-87
2022/09/02 08:39:10;;;;;;;1.08;0.88;;;18.20;64.20;;;;;;5054126;28;20200;-87
2022/09/02 08:41:43;;;;;;;2.17;0.90;;;18.20;63.00;;;;;;5052509;28;20547;-85
2022/09/02 08:44:10;;;;;;;1.85;0.98;;;18.30;62.70;;;;;;5052803;28;20164;-86
2022/09/02 08:46:36;;;;;;;3.28;1.15;;;18.40;62.50;;;;;;5052751;28;20175;-85
2022/09/02 08:49:19;;;;;;;1.35;0.95;;;18.50;61.50;;;;;;5054644;28;20212;-87
2022/09/02 08:51:50;;;;;;;1.77;0.90;;;18.60;61.20;;;;;;5052636;28;20183;-86
2022/09/02 08:54:42;;;;;;;1.10;0.75;;;18.60;61.10;;;;;;5053803;28;20235;-86
2022/09/02 08:57:09;;;;;;;2.03;0.90;;;18.70;60.20;;;;;;5052505;28;20165;-86
2022/09/02 08:59:36;;;;;;;1.80;1.13;;;18.80;61.00;;;;;;5052403;28;20203;-86
2022/09/02 09:02:23;;;;;;;0.85;0.68;;;18.90;60.30;;;;;;5052293;28;20593;-86
2022/09/02 09:04:51;;;;;;;2.88;1.17;;;18.90;60.00;;;;;;5052475;28;20172;-86
2022/09/02 09:07:59;;;;;;;4.70;0.73;;;19.00;60.50;;;;;;5053450;28;20192;-86
2022/09/02 09:10:43;;;;;;;3.53;0.93;;;19.10;59.10;;;;;;5041700;28;20213;-86
2022/09/02 09:13:23;;;;;;;5.65;0.90;;;19.20;58.50;;;;;;5052422;28;20630;-87
2022/09/02 09:16:02;;;;;;;2.67;1.08;;;19.30;59.00;;;;;;5052353;28;20649;-86
2022/09/02 09:18:43;;;;;;;1.88;1.20;;;19.40;58.50;;;;;;5055483;28;20191;-90
2022/09/02 09:21:09;;;;;;;1.25;0.95;;;19.50;58.60;;;;;;5057846;28;20665;-88
2022/09/02 09:23:37;;;;;;;1.65;0.90;;;19.60;57.60;;;;;;5055693;28;20183;-88
2022/09/02 09:26:17;;;;;;;8.27;1.10;;;19.60;58.20;;;;;;5052549;28;20176;-88
2022/09/02 09:28:49;;;;;;;2.55;0.80;;;19.70;57.50;;;;;;5052588;28;20229;-88
2022/09/02 09:31:20;;;;;;;0.73;0.73;;;19.70;56.90;;;;;;5054049;28;20255;-88
2022/09/02 09:34:02;;;;;;;4.05;1.15;;;19.80;56.30;;;;;;5054345;28;20540;-89
2022/09/02 09:36:41;;;;;;;1.42;0.82;;;19.80;56.80;;;;;;5054196;28;20164;-88
2022/09/02 09:39:29;;;;;;;1.75;1.17;;;19.90;57.30;;;;;;5052939;28;20245;-88
2022/09/02 09:42:07;;;;;;;1.80;0.80;;;20.10;56.90;;;;;;5054904;28;20540;-89
2022/09/02 09:44:47;;;;;;;2.08;0.90;;;20.30;55.70;;;;;;5053303;28;20196;-88
2022/09/02 09:47:19;;;;;;;1.58;0.98;;;20.30;55.30;;;;;;5052161;28;20202;-87
2022/09/02 09:49:47;;;;;;;1.13;0.88;;;20.50;54.30;;;;;;5052237;28;20623;-89
2022/09/02 09:52:30;;;;;;;1.80;0.82;;;20.60;54.10;;;;;;5052137;28;20172;-87
2022/09/02 09:55:14;;;;;;;3.08;0.88;;;20.80;52.20;;;;;;5057163;28;20637;-88
2022/09/02 09:57:42;;;;;;;3.53;0.80;;;20.90;54.30;;;;;;5056561;28;20219;-88
2022/09/02 10:00:17;;;;;;;4.32;0.98;;;20.70;52.80;;;;;;5056726;28;20186;-88
2022/09/02 10:02:55;;;;;;;5.00;0.90;;;20.80;54.90;;;;;;5057501;28;20155;-88
2022/09/02 10:05:24;;;;;;;4.07;1.00;;;20.90;53.00;;;;;;5057628;28;20156;-88
2022/09/02 10:08:24;;;;;;;2.22;0.80;;;21.00;52.50;;;;;;5056966;28;20270;-88
2022/09/02 10:11:05;;;;;;;1.40;0.82;;;21.10;52.60;;;;;;5060999;28;20195;-89
2022/09/02 10:13:36;;;;;;;1.77;1.13;;;21.00;52.10;;;;;;5060810;28;20197;-88
2022/09/02 10:16:04;;;;;;;2.58;0.82;;;21.00;51.90;;;;;;5056356;28;20180;-88
2022/09/02 10:18:44;;;;;;;5.68;0.82;;;21.00;52.40;;;;;;5056522;28;20377;-88
2022/09/02 10:21:20;;;;;;;2.22;0.70;;;21.00;53.20;;;;;;5056905;28;20546;-87
2022/09/02 10:24:07;;;;;;;0.98;0.90;;;21.10;52.40;;;;;;5060444;28;20171;-88
2022/09/02 10:26:47;;;;;;;6.45;0.90;;;21.10;52.90;;;;;;5059817;28;20168;-88
2022/09/02 10:29:51;;;;;;;0.70;0.60;;;21.20;51.90;;;;;;5060286;28;20215;-88
2022/09/02 10:32:34;;;;;;;3.70;1.00;;;21.10;51.70;;;;;;5057058;28;20186;-89
2022/09/02 10:35:00;;;;;;;3.40;0.90;;;21.20;51.80;;;;;;5057199;28;20805;-88
2022/09/02 10:37:52;;;;;;;3.17;0.90;;;21.40;51.90;;;;;;5055300;28;20196;-89
2022/09/02 10:40:34;;;;;;;2.80;0.88;;;21.60;50.60;;;;;;5056452;28;20191;-89
2022/09/02 10:43:09;;;;;;;2.72;0.90;;;21.70;49.70;;;;;;5056607;28;20657;-88
2022/09/02 10:45:45;;;;;;;1.58;0.90;;;21.70;50.10;;;;;;5057204;28;20156;-89
2022/09/02 10:48:49;;;;;;;5.45;1.00;;;21.70;49.00;;;;;;5057962;28;20697;-88
2022/09/02 10:51:38;;;;;;;3.15;1.05;;;21.80;49.20;;;;;;5055446;28;20164;-88
2022/09/02 10:54:29;;;;;;;1.23;0.77;;;21.90;48.50;;;;;;5058761;28;20226;-89
2022/09/02 10:57:01;;;;;;;1.92;0.80;;;21.90;49.40;;;;;;5056950;28;20233;-89
2022/09/02 10:59:40;;;;;;;2.30;0.90;;;21.90;49.10;;;;;;5056266;28;20573;-88
2022/09/02 11:02:17;;;;;;;1.75;0.90;;;22.10;50.20;;;;;;5056320;28;20156;-88
2022/09/02 11:04:46;;;;;;;1.55;0.77;;;22.30;47.60;;;;;;5056471;28;20179;-88
2022/09/02 11:07:17;;;;;;;0.93;0.80;;;22.40;48.80;;;;;;5056013;28;20188;-87
2022/09/02 11:09:59;;;;;;;1.40;0.93;;;22.30;48.80;;;;;;5054283;28;20195;-87
2022/09/02 11:12:33;;;;;;;1.05;0.80;;;22.30;49.50;;;;;;5055915;28;20642;-88
2022/09/02 11:15:08;;;;;;;3.70;1.13;;;22.30;48.00;;;;;;5055669;28;20159;-87
2022/09/02 11:18:12;;;;;;;3.00;0.90;;;22.20;48.20;;;;;;5055146;28;20611;-88
2022/09/02 11:20:44;;;;;;;5.57;1.30;;;22.20;47.90;;;;;;5054757;28;20649;-90
2022/09/02 11:23:30;;;;;;;3.08;1.10;;;22.30;48.50;;;;;;5054987;28;20634;-88
2022/09/02 11:26:35;;;;;;;1.10;0.90;;;22.10;46.90;;;;;;5055725;28;20157;-88
2022/09/02 11:29:05;;;;;;;0.80;0.70;;;22.20;47.50;;;;;;5054433;28;20239;-89
2022/09/02 11:31:42;;;;;;;1.83;0.75;;;22.40;47.60;;;;;;5054152;28;20171;-89
2022/09/02 11:34:47;;;;;;;1.88;0.90;;;22.40;47.70;;;;;;5056695;28;20251;-90
2022/09/02 11:37:43;;;;;;;1.45;1.00;;;22.30;46.60;;;;;;5022105;28;20232;-88
2022/09/02 11:41:10;;;;;;;3.58;0.93;;;22.30;46.50;;;;;;5031297;28;20176;-93
2022/09/02 11:43:39;;;;;;;0.90;0.70;;;22.50;46.50;;;;;;5043237;28;20294;-89
2022/09/02 11:46:32;;;;;;;7.63;2.38;;;22.40;46.80;;;;;;5054596;28;20176;-89
2022/09/02 11:49:07;;;;;;;1.35;0.80;;;22.20;47.70;;;;;;5055592;28;20204;-88
2022/09/02 11:51:51;;;;;;;3.50;0.77;;;22.30;46.60;;;;;;5054044;28;20192;-88
2022/09/02 11:54:19;;;;;;;3.33;1.00;;;21.80;46.50;;;;;;5055555;28;20175;-90
2022/09/02 11:56:48;;;;;;;1.30;0.90;;;22.00;47.30;;;;;;5054590;28;20207;-89
2022/09/02 11:59:43;;;;;;;1.52;0.95;;;22.20;47.50;;;;;;5055542;28;20245;-90
2022/09/02 12:02:10;;;;;;;6.07;1.48;;;22.60;47.00;;;;;;5055309;28;20184;-90
2022/09/02 12:04:36;;;;;;;4.50;0.90;;;22.50;46.50;;;;;;5056719;28;20647;-89
2022/09/02 12:09:46;;;;;;;1.60;0.85;;;22.50;46.40;;;;;;5062833;28;20199;-91
2022/09/02 12:12:37;;;;;;;1.13;0.82;;;22.20;46.50;;;;;;5061284;28;20156;-91
2022/09/02 12:15:06;;;;;;;4.75;1.02;;;22.10;46.80;;;;;;5061068;28;20190;-91
2022/09/02 12:17:48;;;;;;;2.38;0.93;;;21.80;47.00;;;;;;5056954;28;20206;-91
2022/09/02 12:20:36;;;;;;;2.30;1.25;;;21.60;47.40;;;;;;5064905;28;20167;-90
2022/09/02 12:23:02;;;;;;;4.07;0.98;;;21.80;47.80;;;;;;5062786;28;20175;-90
2022/09/02 12:25:27;;;;;;;0.80;0.80;;;21.70;47.90;;;;;;5062800;28;20176;-91
2022/09/02 12:28:14;;;;;;;1.58;0.80;;;22.00;47.90;;;;;;5072111;28;20276;-91
2022/09/02 12:31:01;;;;;;;2.58;0.70;;;22.40;46.20;;;;;;5072471;28;20247;-91
2022/09/02 12:33:32;;;;;;;3.33;0.75;;;22.70;46.90;;;;;;5058596;28;20160;-90
2022/09/02 12:35:59;;;;;;;0.73;0.60;;;22.30;47.00;;;;;;5060656;28;20520;-89
2022/09/02 12:38:30;;;;;;;4.72;0.90;;;22.00;47.30;;;;;;5057308;28;20195;-90
2022/09/02 12:41:12;;;;;;;0.95;0.80;;;22.00;48.00;;;;;;5058676;28;20190;-90
2022/09/02 12:43:43;;;;;;;1.10;0.90;;;22.50;47.00;;;;;;5057663;28;20168;-91
2022/09/02 12:46:47;;;;;;;0.98;0.68;;;22.80;46.00;;;;;;5059341;28;20168;-90
2022/09/02 12:49:51;;;;;;;1.45;0.85;;;22.50;45.40;;;;;;5060597;28;20198;-90
2022/09/02 12:52:34;;;;;;;1.30;0.88;;;22.30;46.00;;;;;;5029999;28;20243;-90
2022/09/02 12:55:24;;;;;;;1.48;1.30;;;22.70;45.90;;;;;;5058870;28;20372;-90
2022/09/02 12:57:54;;;;;;;1.20;0.95;;;23.10;44.70;;;;;;5059982;28;20208;-91
2022/09/02 13:00:52;;;;;;;2.78;1.13;;;23.40;43.90;;;;;;5070413;28;20179;-90
2022/09/02 13:03:51;;;;;;;1.35;0.70;;;23.20;43.60;;;;;;5060079;28;20163;-90
2022/09/02 13:06:38;;;;;;;0.80;0.68;;;23.30;41.90;;;;;;5054439;28;20175;-89
2022/09/02 13:09:49;;;;;;;2.05;0.70;;;23.70;41.80;;;;;;5055897;28;20204;-89
2022/09/02 13:12:58;;;;;;;3.45;1.10;;;23.90;41.50;;;;;;5052621;28;20187;-88
2022/09/02 13:15:41;;;;;;;1.05;0.80;;;23.70;39.20;;;;;;5052723;28;20160;-88